createdAt,value
2018-03-29T00:00:01.510Z,99321.18
2018-03-29T00:02:30.209Z,99323.66
2018-03-29T00:04:58.896Z,99323.00
2018-03-29T00:07:27.871Z,99318.55
2018-03-29T00:09:56.575Z,99319.77
2018-03-29T00:12:25.262Z,99319.41
2018-03-29T00:14:53.948Z,99323.91
2018-03-29T00:17:22.590Z,99330.84
2018-03-29T00:19:51.317Z,99330.11
2018-03-29T00:22:20.250Z,99324.29
2018-03-29T00:24:49.709Z,99329.14
2018-03-29T00:27:18.361Z,99325.95
2018-03-29T00:29:47.353Z,99324.09
2018-03-29T00:32:16.074Z,99326.60
2018-03-29T00:34:44.714Z,99323.30
2018-03-29T00:37:13.804Z,99331.50
2018-03-29T00:39:43.262Z,99324.50
2018-03-29T00:42:11.848Z,99319.39
2018-03-29T00:44:40.941Z,99316.42
2018-03-29T00:47:09.633Z,99315.36
2018-03-29T00:49:38.272Z,99315.69
2018-03-29T00:52:07.365Z,99337.80
2018-03-29T00:54:36.090Z,99341.00
2018-03-29T00:57:04.775Z,99340.55
2018-03-29T00:59:33.566Z,99347.50
2018-03-29T01:02:02.109Z,99332.84
2018-03-29T01:04:30.779Z,99337.05
2018-03-29T01:07:00.244Z,99330.58
2018-03-29T01:09:28.911Z,99338.86
2018-03-29T01:11:57.466Z,99342.68
2018-03-29T01:14:26.400Z,99336.54
2018-03-29T01:16:55.043Z,99330.69
2018-03-29T01:19:23.772Z,99321.70
2018-03-29T01:21:52.704Z,99316.45
2018-03-29T01:24:22.163Z,99309.89
2018-03-29T01:26:50.815Z,99315.95
2018-03-29T01:29:19.536Z,99313.19
2018-03-29T01:31:48.221Z,99313.33
2018-03-29T01:34:16.907Z,99312.39
2018-03-29T01:36:45.702Z,99306.89
2018-03-29T01:39:14.278Z,99304.94
2018-03-29T01:41:42.815Z,99297.25
2018-03-29T01:44:12.311Z,99299.15
2018-03-29T01:46:41.774Z,99289.73
2018-03-29T01:49:10.316Z,99287.58
2018-03-29T01:51:39.244Z,99280.12
2018-03-29T01:54:07.886Z,99271.34
2018-03-29T01:56:36.616Z,99267.48
2018-03-29T01:59:05.597Z,99260.29
2018-03-29T02:01:34.294Z,99267.16
2018-03-29T02:04:02.980Z,99265.97
2018-03-29T02:06:31.825Z,99257.98
2018-03-29T02:09:01.176Z,99266.58
2018-03-29T02:11:29.812Z,99261.29
2018-03-29T02:13:58.855Z,99273.30
2018-03-29T02:16:27.499Z,99280.03
2018-03-29T02:18:56.227Z,99275.02
2018-03-29T02:21:24.958Z,99270.67
2018-03-29T02:23:54.420Z,99272.16
2018-03-29T02:26:23.040Z,99273.28
2018-03-29T02:28:52.510Z,99267.20
2018-03-29T02:31:21.191Z,99273.19
2018-03-29T02:33:49.877Z,99272.83
2018-03-29T02:36:18.661Z,99269.87
2018-03-29T02:38:47.248Z,99266.27
2018-03-29T02:41:15.952Z,99268.64
2018-03-29T02:43:44.668Z,99260.98
2018-03-29T02:46:14.128Z,99273.34
2018-03-29T02:48:42.752Z,99283.07
2018-03-29T02:51:12.414Z,99288.63
2018-03-29T02:53:41.107Z,99286.89
2018-03-29T02:56:09.755Z,99279.16
2018-03-29T02:58:38.678Z,99281.36
2018-03-29T03:01:07.265Z,99289.97
2018-03-29T03:03:35.851Z,99295.53
2018-03-29T03:06:04.536Z,99293.72
2018-03-29T03:08:33.223Z,99284.55
2018-03-29T03:11:01.861Z,99276.09
2018-03-29T03:13:31.557Z,99283.86
2018-03-29T03:16:01.014Z,99278.22
2018-03-29T03:18:29.700Z,99278.69
2018-03-29T03:20:58.593Z,99278.48
2018-03-29T03:23:27.281Z,99285.30
2018-03-29T03:25:55.856Z,99305.48
2018-03-29T03:28:25.017Z,99308.44
2018-03-29T03:30:53.645Z,99306.44
2018-03-29T03:33:22.233Z,99314.27
2018-03-29T03:35:51.017Z,99329.86
2018-03-29T03:38:19.703Z,99335.89
2018-03-29T03:40:48.280Z,99326.48
2018-03-29T03:43:17.069Z,99326.38
2018-03-29T03:45:45.760Z,99330.58
2018-03-29T03:48:14.406Z,99346.61
2018-03-29T03:50:43.132Z,99358.36
2018-03-29T03:53:11.818Z,99353.31
2018-03-29T03:55:40.504Z,99352.76
2018-03-29T03:58:09.477Z,99347.99
2018-03-29T04:00:38.182Z,99345.61
2018-03-29T04:03:06.770Z,99342.92
2018-03-29T04:05:35.653Z,99346.44
2018-03-29T04:08:04.339Z,99352.73
2018-03-29T04:10:33.025Z,99348.79
2018-03-29T04:21:12.228Z,99345.28
2018-03-29T04:23:40.780Z,99345.22
2018-03-29T04:26:09.392Z,99347.38
2018-03-29T04:28:38.092Z,99361.08
2018-03-29T04:31:11.564Z,99360.56
2018-03-29T04:33:40.528Z,99361.73
2018-03-29T04:36:09.080Z,99360.01
2018-03-29T04:38:38.559Z,99362.97
2018-03-29T04:41:07.750Z,99367.70
2018-03-29T04:43:36.400Z,99369.32
2018-03-29T04:46:05.122Z,99368.70
2018-03-29T04:48:33.856Z,99375.53
2018-03-29T04:51:03.316Z,99377.47
2018-03-29T04:56:43.696Z,99377.97
2018-03-29T04:59:12.382Z,99383.91
2018-03-29T05:01:41.055Z,99384.56
2018-03-29T05:04:09.754Z,99381.64
2018-03-29T05:06:38.439Z,99383.64
2018-03-29T05:09:07.164Z,99391.30
2018-03-29T05:11:36.677Z,99383.55
2018-03-29T05:14:06.131Z,99394.72
2018-03-29T05:16:34.789Z,99393.62
2018-03-29T05:19:03.810Z,99392.64
2018-03-29T05:21:32.498Z,99402.52
2018-03-29T05:24:01.192Z,99405.38
2018-03-29T05:26:35.397Z,99399.34
2018-03-29T05:29:04.086Z,99404.15
2018-03-29T05:31:32.768Z,99411.48
2018-03-29T05:34:01.564Z,99417.93
2018-03-29T05:36:30.202Z,99417.63
2018-03-29T05:38:58.936Z,99418.27
2018-03-29T05:41:27.820Z,99422.00
2018-03-29T05:43:56.512Z,99424.33
2018-03-29T05:46:25.192Z,99428.37
2018-03-29T05:48:53.891Z,99430.80
2018-03-29T05:51:22.460Z,99433.58
2018-03-29T05:53:51.012Z,99439.20
2018-03-29T05:56:19.897Z,99441.84
2018-03-29T05:58:48.632Z,99440.80
2018-03-29T06:01:17.822Z,99448.22
2018-03-29T06:03:46.451Z,99440.57
2018-03-29T06:06:15.907Z,99449.68
2018-03-29T06:08:44.635Z,99449.55
2018-03-29T06:11:14.055Z,99444.35
2018-03-29T06:13:43.545Z,99451.14
2018-03-29T06:16:21.404Z,99453.88
2018-03-29T06:18:50.034Z,99453.05
2018-03-29T06:21:19.447Z,99470.48
2018-03-29T06:23:48.900Z,99463.36
2018-03-29T06:26:17.584Z,99462.94
2018-03-29T06:28:46.270Z,99474.85
2018-03-29T06:31:15.222Z,99475.50
2018-03-29T06:33:43.948Z,99477.73
2018-03-29T06:36:12.529Z,99484.72
2018-03-29T06:38:41.452Z,99481.83
2018-03-29T06:41:10.165Z,99481.25
2018-03-29T06:43:39.614Z,99477.27
2018-03-29T06:46:08.402Z,99484.08
2018-03-29T06:48:37.083Z,99495.08
2018-03-29T06:51:05.670Z,99489.13
2018-03-29T06:53:34.357Z,99488.63
2018-03-29T06:56:03.043Z,99492.19
2018-03-29T06:58:31.674Z,99494.36
2018-03-29T07:01:01.499Z,99493.41
2018-03-29T07:03:30.944Z,99499.38
2018-03-29T07:05:59.631Z,99498.00
2018-03-29T07:08:28.568Z,99494.54
2018-03-29T07:10:57.984Z,99491.30
2018-03-29T07:13:26.714Z,99491.48
2018-03-29T07:15:55.588Z,99493.39
2018-03-29T07:18:24.288Z,99507.55
2018-03-29T07:20:52.930Z,99512.02
2018-03-29T07:23:22.024Z,99515.59
2018-03-29T07:25:50.730Z,99517.55
2018-03-29T07:28:19.416Z,99519.02
2018-03-29T07:30:48.000Z,99511.16
2018-03-29T07:33:16.680Z,99514.39
2018-03-29T07:35:45.313Z,99525.30
2018-03-29T07:38:14.971Z,99526.47
2018-03-29T07:40:43.601Z,99515.58
2018-03-29T07:43:13.070Z,99527.24
2018-03-29T07:45:42.635Z,99524.66
2018-03-29T07:48:11.276Z,99536.28
2018-03-29T07:50:40.728Z,99538.94
2018-03-29T07:53:09.792Z,99543.37
2018-03-29T07:55:38.408Z,99544.08
2018-03-29T07:58:06.994Z,99538.32
2018-03-29T08:00:35.719Z,99541.13
2018-03-29T08:03:05.183Z,99539.69
2018-03-29T08:05:33.832Z,99543.34
2018-03-29T08:08:02.594Z,99546.97
2018-03-29T08:10:32.058Z,99552.98
2018-03-29T08:13:01.508Z,99551.02
2018-03-29T08:15:31.251Z,99553.63
2018-03-29T08:17:59.958Z,99554.05
2018-03-29T08:20:28.645Z,99545.41
2018-03-29T08:22:58.152Z,99538.54
2018-03-29T08:25:26.771Z,99535.31
2018-03-29T08:27:56.239Z,99531.14
2018-03-29T08:30:24.987Z,99528.48
2018-03-29T08:32:53.708Z,99534.19
2018-03-29T08:35:22.743Z,99536.53
2018-03-29T08:37:52.308Z,99540.91
2018-03-29T08:40:20.994Z,99537.57
2018-03-29T08:42:49.635Z,99534.22
2018-03-29T08:45:18.440Z,99530.84
2018-03-29T08:47:47.162Z,99526.78
2018-03-29T08:50:15.708Z,99530.59
2018-03-29T08:52:44.373Z,99527.98
2018-03-29T08:55:13.890Z,99535.20
2018-03-29T08:57:42.618Z,99525.55
2018-03-29T09:00:11.612Z,99521.83
2018-03-29T09:02:40.297Z,99521.96
2018-03-29T09:05:08.962Z,99515.55
2018-03-29T09:07:38.056Z,99515.08
2018-03-29T09:10:06.763Z,99512.72
2018-03-29T09:12:35.391Z,99510.94
2018-03-29T09:15:05.053Z,99515.95
2018-03-29T09:17:33.596Z,99515.56
2018-03-29T09:20:02.327Z,99519.51
2018-03-29T09:22:31.120Z,99521.31
2018-03-29T09:24:59.757Z,99515.73
2018-03-29T09:27:28.483Z,99516.48
2018-03-29T09:29:57.278Z,99515.94
2018-03-29T09:32:25.964Z,99520.20
2018-03-29T09:34:54.602Z,99517.67
2018-03-29T09:37:23.338Z,99517.02
2018-03-29T09:39:52.023Z,99517.30
2018-03-29T09:42:20.708Z,99512.64
2018-03-29T09:44:49.552Z,99516.73
2018-03-29T09:47:18.100Z,99517.05
2018-03-29T09:49:48.301Z,99509.41
2018-03-29T09:52:17.091Z,99512.54
2018-03-29T09:54:45.749Z,99512.81
2018-03-29T09:57:14.458Z,99512.33
2018-03-29T09:59:43.385Z,99506.94
2018-03-29T10:02:18.379Z,99508.59
2018-03-29T10:04:52.595Z,99509.38
2018-03-29T10:07:25.088Z,99512.13
2018-03-29T10:09:53.961Z,99504.75
2018-03-29T10:12:22.658Z,99506.48
2018-03-29T10:14:51.331Z,99499.03
2018-03-29T10:17:20.984Z,99501.21
2018-03-29T10:19:50.353Z,99491.39
2018-03-29T10:22:18.895Z,99485.83
2018-03-29T10:24:47.918Z,99492.13
2018-03-29T10:27:16.603Z,99482.91
2018-03-29T10:29:45.251Z,99481.02
2018-03-29T10:32:13.976Z,99484.63
2018-03-29T10:34:42.662Z,99491.66
2018-03-29T10:37:11.305Z,99483.32
2018-03-29T10:39:40.242Z,99481.97
2018-03-29T10:42:08.891Z,99479.80
2018-03-29T10:44:37.614Z,99477.78
2018-03-29T10:47:06.577Z,99476.43
2018-03-29T10:49:35.292Z,99468.45
2018-03-29T10:52:03.984Z,99466.81
2018-03-29T10:54:32.758Z,99471.64
2018-03-29T10:57:01.449Z,99464.52
2018-03-29T10:59:30.092Z,99467.62
2018-03-29T11:01:59.094Z,99467.42
2018-03-29T11:07:07.063Z,99457.00
2018-03-29T11:09:35.744Z,99459.49
2018-03-29T11:12:04.512Z,99452.59
2018-03-29T11:14:33.486Z,99458.22
2018-03-29T11:17:03.224Z,99449.42
2018-03-29T11:19:31.909Z,99449.50
2018-03-29T11:22:01.112Z,99449.82
2018-03-29T11:24:29.797Z,99443.48
2018-03-29T11:26:58.421Z,99435.23
2018-03-29T11:29:27.513Z,99443.94
2018-03-29T11:31:56.229Z,99441.77
2018-03-29T11:34:24.814Z,99432.48
2018-03-29T11:36:53.544Z,99429.16
2018-03-29T11:39:22.999Z,99431.46
2018-03-29T11:41:51.630Z,99426.98
2018-03-29T11:44:21.195Z,99425.08
2018-03-29T11:46:49.879Z,99422.13
2018-03-29T11:49:18.564Z,99420.13
2018-03-29T11:51:47.657Z,99420.49
2018-03-29T11:54:16.342Z,99418.92
2018-03-29T11:56:44.989Z,99404.47
2018-03-29T11:59:13.714Z,99407.77
2018-03-29T12:01:42.265Z,99411.92
2018-03-29T12:04:10.986Z,99397.75
2018-03-29T12:06:39.672Z,99393.49
2018-03-29T12:09:08.457Z,99399.22
2018-03-29T12:11:37.123Z,99386.47
2018-03-29T12:14:06.116Z,99392.70
2018-03-29T12:16:34.822Z,99385.67
2018-03-29T12:19:03.454Z,99388.05
2018-03-29T12:21:33.017Z,99385.55
2018-03-29T12:24:02.482Z,99377.73
2018-03-29T12:26:31.132Z,99378.45
2018-03-29T12:29:00.061Z,99377.03
2018-03-29T12:31:29.532Z,99372.84
2018-03-29T12:33:58.108Z,99371.16
2018-03-29T12:36:26.851Z,99367.55
2018-03-29T12:38:56.472Z,99362.80
2018-03-29T12:41:25.163Z,99368.02
2018-03-29T12:43:54.048Z,99366.25
2018-03-29T12:46:23.824Z,99366.20
2018-03-29T12:48:52.471Z,99361.65
2018-03-29T12:51:21.386Z,99355.63
2018-03-29T12:53:49.949Z,99354.89
2018-03-29T12:59:18.421Z,99357.52
2018-03-29T13:01:47.145Z,99353.45
2018-03-29T13:04:15.833Z,99351.41
2018-03-29T13:06:44.551Z,99346.49
2018-03-29T13:09:13.294Z,99349.83
2018-03-29T13:11:41.902Z,99342.87
2018-03-29T13:14:11.333Z,99337.08
2018-03-29T13:16:40.132Z,99348.97
2018-03-29T13:19:08.816Z,99339.43
2018-03-29T13:21:37.459Z,99348.20
2018-03-29T13:24:06.199Z,99349.92
2018-03-29T13:26:34.982Z,99347.05
2018-03-29T13:29:04.442Z,99345.09
2018-03-29T13:31:33.908Z,99342.86
2018-03-29T13:34:02.605Z,99342.34
2018-03-29T13:36:31.291Z,99332.87
2018-03-29T13:38:59.967Z,99325.50
2018-03-29T13:41:28.661Z,99325.22
2018-03-29T13:43:57.346Z,99322.77
2018-03-29T13:46:26.193Z,99319.01
2018-03-29T13:48:54.816Z,99329.14
2018-03-29T13:51:23.303Z,99334.93
2018-03-29T13:53:51.863Z,99326.36
2018-03-29T13:56:20.568Z,99335.83
2018-03-29T13:58:49.257Z,99333.56
2018-03-29T14:01:17.938Z,99339.44
2018-03-29T14:03:46.735Z,99328.76
2018-03-29T14:06:15.407Z,99326.08
2018-03-29T14:08:44.382Z,99325.67
2018-03-29T14:11:12.975Z,99330.67
2018-03-29T14:13:41.675Z,99327.86
2018-03-29T14:16:10.459Z,99328.59
2018-03-29T14:18:39.152Z,99329.83
2018-03-29T14:21:07.798Z,99329.59
2018-03-29T14:23:39.586Z,99331.30
2018-03-29T14:26:16.671Z,99332.78
2018-03-29T14:28:48.327Z,99328.42
2018-03-29T14:31:17.013Z,99327.24
2018-03-29T14:33:45.663Z,99333.12
2018-03-29T14:36:14.428Z,99327.41
2018-03-29T14:38:43.180Z,99336.03
2018-03-29T14:41:11.814Z,99337.39
2018-03-29T14:43:40.735Z,99339.84
2018-03-29T14:46:09.436Z,99338.95
2018-03-29T14:48:38.123Z,99337.11
2018-03-29T14:51:07.009Z,99336.91
2018-03-29T14:53:35.718Z,99332.00
2018-03-29T14:56:04.305Z,99333.50
2018-03-29T14:58:33.094Z,99336.18
2018-03-29T15:01:01.795Z,99333.13
2018-03-29T15:03:32.920Z,99335.41
2018-03-29T15:06:01.611Z,99333.02
2018-03-29T15:08:32.790Z,99334.42
2018-03-29T15:11:02.167Z,99340.52
2018-03-29T15:13:31.604Z,99338.03
2018-03-29T15:16:01.165Z,99342.04
2018-03-29T15:18:29.814Z,99341.68
2018-03-29T15:20:58.536Z,99344.72
2018-03-29T15:23:27.420Z,99339.20
2018-03-29T15:25:56.116Z,99344.16
2018-03-29T15:28:24.734Z,99348.56
2018-03-29T15:31:00.137Z,99347.63
2018-03-29T15:33:28.823Z,99361.91
2018-03-29T15:35:57.371Z,99356.20
2018-03-29T15:38:26.101Z,99362.33
2018-03-29T15:40:54.646Z,99361.67
2018-03-29T15:43:23.318Z,99360.92
2018-03-29T15:46:20.893Z,99361.50
2018-03-29T15:48:49.620Z,99374.47
2018-03-29T15:51:18.313Z,99375.91
2018-03-29T15:53:46.947Z,99380.27
2018-03-29T15:56:15.513Z,99382.22
2018-03-29T15:58:44.822Z,99386.17
2018-03-29T16:01:14.481Z,99387.89
2018-03-29T16:03:43.042Z,99399.13
2018-03-29T16:06:11.599Z,99398.26
2018-03-29T16:08:41.355Z,99395.89
2018-03-29T16:11:09.996Z,99398.89
2018-03-29T16:13:39.304Z,99402.58
2018-03-29T16:16:08.178Z,99397.58
2018-03-29T16:18:37.522Z,99410.12
2018-03-29T16:21:06.112Z,99406.41
2018-03-29T16:23:36.242Z,99407.84
2018-03-29T16:26:04.929Z,99403.39
2018-03-29T16:28:33.490Z,99406.05
2018-03-29T16:31:05.217Z,99410.30
2018-03-29T16:33:34.149Z,99411.83
2018-03-29T16:36:10.923Z,99413.17
2018-03-29T16:38:39.565Z,99419.20
2018-03-29T16:41:09.017Z,99431.20
2018-03-29T16:43:37.802Z,99431.83
2018-03-29T16:46:07.223Z,99429.02
2018-03-29T16:48:37.500Z,99428.53
2018-03-29T16:51:06.280Z,99438.06
2018-03-29T16:53:34.982Z,99434.31
2018-03-29T16:56:03.557Z,99434.72
2018-03-29T16:58:32.354Z,99439.94
2018-03-29T17:01:01.003Z,99444.29
2018-03-29T17:03:29.728Z,99445.77
2018-03-29T17:05:58.914Z,99450.77
2018-03-29T17:08:27.559Z,99448.09
2018-03-29T17:10:56.287Z,99456.84
2018-03-29T17:13:24.997Z,99457.95
2018-03-29T17:15:56.670Z,99472.22
2018-03-29T17:18:25.447Z,99471.64
2018-03-29T17:20:54.229Z,99471.83
2018-03-29T17:23:22.817Z,99472.12
2018-03-29T17:25:51.586Z,99476.25
2018-03-29T17:28:20.287Z,99477.59
2018-03-29T17:30:48.866Z,99471.70
2018-03-29T17:33:17.816Z,99489.23
2018-03-29T17:35:46.552Z,99482.75
2018-03-29T17:38:15.101Z,99478.72
2018-03-29T17:40:43.735Z,99487.23
2018-03-29T17:43:12.400Z,99491.33
2018-03-29T17:45:51.224Z,99496.59
2018-03-29T17:48:26.455Z,99497.04
2018-03-29T17:50:57.714Z,99499.03
2018-03-29T17:53:26.498Z,99498.63
2018-03-29T17:55:55.049Z,99504.83
2018-03-29T17:58:24.594Z,99503.61
2018-03-29T18:00:53.295Z,99513.77
2018-03-29T18:03:21.981Z,99519.02
2018-03-29T18:05:50.775Z,99527.39
2018-03-29T18:08:19.414Z,99532.80
2018-03-29T18:10:48.146Z,99533.13
2018-03-29T18:13:17.030Z,99553.97
2018-03-29T18:15:46.345Z,99547.35
2018-03-29T18:18:14.905Z,99548.57
2018-03-29T18:20:43.944Z,99547.08
2018-03-29T18:23:12.810Z,99551.19
2018-03-29T18:25:41.357Z,99549.30
2018-03-29T18:28:10.164Z,99549.97
2018-03-29T18:30:39.730Z,99554.61
2018-03-29T18:33:08.292Z,99554.91
2018-03-29T18:35:37.667Z,99572.25
2018-03-29T18:38:06.349Z,99566.47
2018-03-29T18:40:35.034Z,99577.63
2018-03-29T18:43:03.867Z,99587.46
2018-03-29T18:45:32.562Z,99594.77
2018-03-29T18:48:01.978Z,99601.90
2018-03-29T18:50:30.745Z,99597.73
2018-03-29T18:53:00.061Z,99604.41
2018-03-29T18:55:28.607Z,99606.70
2018-03-29T18:57:58.345Z,99610.37
2018-03-29T19:00:26.970Z,99611.12
2018-03-29T19:02:55.653Z,99613.08
2018-03-29T19:05:24.425Z,99610.92
2018-03-29T19:07:52.970Z,99609.06
2018-03-29T19:10:21.677Z,99611.58
2018-03-29T19:12:51.252Z,99609.53
2018-03-29T19:15:21.671Z,99609.16
2018-03-29T19:17:50.575Z,99620.47
2018-03-29T19:20:19.134Z,99626.02
2018-03-29T19:22:47.888Z,99626.27
2018-03-29T19:25:16.798Z,99626.80
2018-03-29T19:27:45.366Z,99623.12
2018-03-29T19:30:13.941Z,99626.78
2018-03-29T19:32:43.669Z,99635.94
2018-03-29T19:35:12.231Z,99631.98
2018-03-29T19:37:41.357Z,99634.93
2018-03-29T19:40:10.770Z,99637.18
2018-03-29T19:42:39.337Z,99633.84
2018-03-29T19:45:08.648Z,99633.63
2018-03-29T19:47:37.336Z,99623.09
2018-03-29T19:50:05.888Z,99630.66
2018-03-29T19:52:35.204Z,99634.09
2018-03-29T19:55:03.930Z,99631.44
2018-03-29T19:57:32.473Z,99633.61
2018-03-29T20:00:01.034Z,99636.20
2018-03-29T20:02:30.445Z,99631.98
2018-03-29T20:04:59.023Z,99635.69
2018-03-29T20:07:27.608Z,99643.16
2018-03-29T20:09:57.114Z,99637.19
2018-03-29T20:12:26.430Z,99643.17
2018-03-29T20:14:54.977Z,99642.42
2018-03-29T20:17:24.552Z,99637.75
2018-03-29T20:19:53.246Z,99640.32
2018-03-29T20:22:22.029Z,99639.59
2018-03-29T20:24:51.120Z,99643.54
2018-03-29T20:27:19.777Z,99644.01
2018-03-29T20:29:48.492Z,99643.00
2018-03-29T20:32:17.793Z,99651.34
2018-03-29T20:34:46.478Z,99656.56
2018-03-29T20:37:15.171Z,99654.59
2018-03-29T20:39:43.852Z,99652.22
2018-03-29T20:42:12.581Z,99654.52
2018-03-29T20:44:42.045Z,99645.84
2018-03-29T20:47:10.822Z,99647.69
2018-03-29T20:49:39.514Z,99652.30
2018-03-29T20:52:08.159Z,99654.54
2018-03-29T20:54:37.149Z,99659.67
2018-03-29T20:57:05.878Z,99668.06
2018-03-29T20:59:34.536Z,99673.97
2018-03-29T21:02:03.352Z,99669.73
2018-03-29T21:04:32.097Z,99675.45
2018-03-29T21:07:00.732Z,99680.82
2018-03-29T21:09:29.516Z,99679.70
2018-03-29T21:11:58.202Z,99678.34
2018-03-29T21:14:26.890Z,99680.71
2018-03-29T21:16:56.594Z,99685.02
2018-03-29T21:19:25.280Z,99687.16
2018-03-29T21:21:53.923Z,99681.80
2018-03-29T21:24:22.651Z,99679.92
2018-03-29T21:26:51.338Z,99679.52
2018-03-29T21:29:20.026Z,99666.33
2018-03-29T21:31:49.225Z,99667.88
2018-03-29T21:34:17.983Z,99668.63
2018-03-29T21:36:47.309Z,99669.71
2018-03-29T21:39:16.257Z,99673.31
2018-03-29T21:41:45.096Z,99680.77
2018-03-29T21:44:13.731Z,99689.23
2018-03-29T21:46:43.452Z,99685.10
2018-03-29T21:49:12.178Z,99693.84
2018-03-29T21:51:40.988Z,99703.42
2018-03-29T21:54:10.730Z,99707.31
2018-03-29T21:56:39.461Z,99708.30
2018-03-29T21:59:08.036Z,99711.47
2018-03-29T22:01:36.931Z,99714.37
2018-03-29T22:04:05.518Z,99704.60
2018-03-29T22:06:34.205Z,99708.48
2018-03-29T22:09:02.949Z,99712.81
2018-03-29T22:11:31.674Z,99716.61
2018-03-29T22:14:00.261Z,99718.50
2018-03-29T22:16:29.040Z,99715.55
2018-03-29T22:18:57.687Z,99719.53
2018-03-29T22:21:26.416Z,99719.86
2018-03-29T22:23:55.105Z,99725.48
2018-03-29T22:26:23.901Z,99732.75
2018-03-29T22:28:53.397Z,99748.87
2018-03-29T22:31:22.951Z,99755.15
2018-03-29T22:33:52.412Z,99762.11
2018-03-29T22:36:21.097Z,99763.59
2018-03-29T22:38:49.830Z,99765.37
2018-03-29T22:41:19.282Z,99762.69
2018-03-29T22:43:47.969Z,99765.69
2018-03-29T22:46:16.755Z,99764.81
2018-03-29T22:48:45.449Z,99769.64
2018-03-29T22:51:14.145Z,99779.28
2018-03-29T22:53:42.913Z,99786.38
2018-03-29T22:56:11.606Z,99780.84
2018-03-29T22:58:40.249Z,99786.74
2018-03-29T23:01:08.977Z,99780.50
2018-03-29T23:03:37.609Z,99777.17
2018-03-29T23:06:07.067Z,99781.95
2018-03-29T23:08:35.856Z,99778.33
2018-03-29T23:11:04.537Z,99781.27
2018-03-29T23:13:33.228Z,99785.28
2018-03-29T23:16:02.113Z,99783.66
2018-03-29T23:18:30.796Z,99776.80
2018-03-29T23:20:59.483Z,99785.34
2018-03-29T23:23:28.225Z,99792.95
2018-03-29T23:25:57.678Z,99789.27
2018-03-29T23:28:26.265Z,99788.30
2018-03-29T23:30:55.409Z,99783.34
2018-03-29T23:33:24.141Z,99785.67
2018-03-29T23:35:52.793Z,99783.90
2018-03-29T23:38:21.791Z,99777.63
2018-03-29T23:40:50.505Z,99773.69
2018-03-29T23:43:19.192Z,99775.18
2018-03-29T23:45:47.986Z,99774.31
2018-03-29T23:48:16.671Z,99783.06
2018-03-29T23:50:45.501Z,99785.19
2018-03-29T23:53:14.966Z,99791.59
2018-03-29T23:55:43.560Z,99795.27
2018-03-29T23:58:18.273Z,99794.02
